aviador You're here:

KRCM Decoded Metar

in _UNIDENTIFIED
Report Time2018-07-17 01:55:00
UTC Time2018-07-17 01:53:19
Flight Rules vfr VFR
WindCalm
Visibility9999 m
Phenomena:N/A
Clouds:N/A
Expected CloudBase > 3,600 ft AGL from Temp-Dew spread
CeilingNone
Temp29°C (ISA +16)
Dew Point20°C (58% RH)
Heat Index30.7°C
QNH1015 hPa
Density Alt2,835 ft
Elevation801 ft
Report Wrong Elevation
Raw Report
KRCM 170155Z AUTO 00000KT 10SM CLR 29/20 A2998 RMK AO2=

Extra information for KRCM:More info

Metar Taf Metar & Taf Last 4 Metars F.Rules Stats Wind Profile Meteogram Temp Stats Metar ALERT Operation Metar Decoded Social comments